Time;durP1;ratioP1;P1;durP2;ratioP2;P2;SDS_P1;SDS_P2;PMS_P1;PMS_P2;Temp;Humidity;BMP_temperature;BMP_pressure;BME280_temperature;BME280_humidity;BME280_pressure;Samples;Min_cycle;Max_cycle;Signal;HPM_P1;HPM_P2
2021/03/23 00:00:52;;;;;;;22.95;12.40;;;;;;;-0.60;73.43;96842.93;1713905;84;21149;-79
2021/03/23 00:03:33;;;;;;;18.55;11.70;;;;;;;-0.53;73.14;96846.84;1715593;82;21500;-79
2021/03/23 00:06:01;;;;;;;18.82;10.63;;;;;;;-0.48;72.92;96849.64;1710738;82;21122;-78
2021/03/23 00:08:33;;;;;;;24.72;13.48;;;;;;;-0.45;72.74;96851.33;1715354;83;21308;-78
2021/03/23 00:11:15;;;;;;;22.87;13.95;;;;;;;-0.43;72.65;96852.42;1708800;83;21565;-78
2021/03/23 00:13:45;;;;;;;22.50;12.63;;;;;;;-0.43;72.56;96851.13;1708900;82;21556;-79
2021/03/23 00:16:15;;;;;;;28.05;14.03;;;;;;;-0.44;72.50;96849.02;1728796;82;21171;-79
2021/03/23 00:18:42;;;;;;;23.30;13.43;;;;;;;-0.43;72.37;96848.02;1745863;81;21079;-79
2021/03/23 00:21:11;;;;;;;26.57;14.68;;;;;;;-0.45;72.32;96852.63;1735052;81;21464;-79
2021/03/23 00:23:38;;;;;;;22.27;11.30;;;;;;;-0.48;72.16;96865.26;1708661;83;21139;-79
2021/03/23 00:26:07;;;;;;;19.10;8.68;;;;;;;-0.50;72.35;96856.35;1699859;84;21105;-79
2021/03/23 00:28:35;;;;;;;31.73;12.00;;;;;;;-0.47;72.52;96838.22;1734202;81;21088;-79
2021/03/23 00:31:03;;;;;;;26.17;12.82;;;;;;;-0.40;72.47;96837.72;1697125;84;21169;-79
2021/03/23 00:33:31;;;;;;;20.65;10.58;;;;;;;-0.40;72.48;96840.33;1724072;81;21103;-79
2021/03/23 00:36:01;;;;;;;17.90;10.32;;;;;;;-0.40;72.50;96832.51;1699748;83;21518;-79
2021/03/23 00:38:31;;;;;;;21.20;11.03;;;;;;;-0.40;72.58;96837.72;1739231;81;21132;-79
2021/03/23 00:40:58;;;;;;;20.45;9.70;;;;;;;-0.44;72.90;96838.60;1725074;82;21161;-79
2021/03/23 00:43:26;;;;;;;17.82;10.13;;;;;;;-0.45;73.06;96841.41;1722404;82;21165;-79
2021/03/23 00:45:53;;;;;;;14.50;8.03;;;;;;;-0.45;72.97;96840.91;1732382;83;21119;-79
2021/03/23 00:48:20;;;;;;;20.52;9.93;;;;;;;-0.44;72.96;96827.39;1734009;83;21159;-79
2021/03/23 00:50:48;;;;;;;14.20;7.95;;;;;;;-0.41;73.15;96835.61;1731354;81;21135;-79
2021/03/23 00:53:15;;;;;;;18.57;12.07;;;;;;;-0.43;73.38;96832.39;1730431;81;21091;-79
2021/03/23 00:55:42;;;;;;;20.57;11.80;;;;;;;-0.44;73.43;96827.39;1739931;81;21151;-79
2021/03/23 00:58:09;;;;;;;16.20;9.45;;;;;;;-0.48;73.62;96824.90;1740370;81;21120;-79
2021/03/23 01:00:36;;;;;;;17.55;9.40;;;;;;;-0.51;73.59;96827.41;1739195;81;21142;-79
2021/03/23 01:03:04;;;;;;;14.23;9.08;;;;;;;-0.49;73.53;96832.41;1724030;82;21138;-79
2021/03/23 01:05:34;;;;;;;19.65;10.58;;;;;;;-0.48;73.61;96820.99;1717848;82;21528;-79
2021/03/23 01:08:03;;;;;;;16.15;8.38;;;;;;;-0.46;73.49;96830.70;1693821;84;21148;-79
2021/03/23 01:10:33;;;;;;;16.93;9.65;;;;;;;-0.46;73.48;96823.69;1708967;84;21489;-79
2021/03/23 01:13:01;;;;;;;15.47;8.37;;;;;;;-0.44;73.39;96819.57;1709166;84;21121;-79
2021/03/23 01:15:32;;;;;;;25.45;14.63;;;;;;;-0.42;73.29;96815.78;1706359;84;21138;-79
2021/03/23 01:18:01;;;;;;;15.28;7.92;;;;;;;-0.41;73.35;96815.28;1755905;81;21503;-79
2021/03/23 01:20:31;;;;;;;14.15;9.05;;;;;;;-0.40;73.10;96802.56;1682026;84;21102;-79
2021/03/23 01:22:59;;;;;;;25.07;7.73;;;;;;;-0.36;72.80;96806.34;1685628;84;21151;-79
2021/03/23 01:25:27;;;;;;;16.65;11.15;;;;;;;-0.33;72.91;96811.14;1731408;81;21157;-79
2021/03/23 01:27:54;;;;;;;12.50;8.45;;;;;;;-0.33;72.82;96815.05;1700658;84;21129;-79
2021/03/23 01:30:26;;;;;;;18.75;8.73;;;;;;;-0.32;72.70;96823.95;1725091;83;21507;-79
2021/03/23 01:32:54;;;;;;;15.95;7.45;;;;;;;-0.33;72.75;96826.77;1725496;83;21155;-79
2021/03/23 01:35:23;;;;;;;12.68;8.75;;;;;;;-0.37;72.79;96824.28;1718664;82;21499;-79
2021/03/23 01:37:51;;;;;;;15.75;7.17;;;;;;;-0.36;72.57;96816.27;1732581;83;21268;-79
2021/03/23 01:40:22;;;;;;;14.90;8.45;;;;;;;-0.31;72.55;96832.06;1734447;81;21154;-79
2021/03/23 01:42:56;;;;;;;15.08;8.65;;;;;;;-0.30;72.56;96827.66;1753885;80;21499;-79
2021/03/23 01:45:35;;;;;;;17.82;8.30;;;;;;;-0.33;72.66;96826.77;1690296;83;21137;-79
2021/03/23 01:48:06;;;;;;;15.05;9.33;;;;;;;-0.35;72.72;96833.98;1703235;84;21157;-79
2021/03/23 01:50:35;;;;;;;13.18;7.90;;;;;;;-0.41;72.92;96831.70;1700971;83;21138;-79
2021/03/23 01:53:16;;;;;;;14.28;7.70;;;;;;;-0.50;72.94;96832.11;1725277;83;21136;-79
2021/03/23 01:55:43;;;;;;;15.50;7.83;;;;;;;-0.56;73.12;96828.53;1735551;82;21585;-79
2021/03/23 01:58:12;;;;;;;12.47;7.72;;;;;;;-0.61;73.29;96821.30;1717349;83;21087;-79
2021/03/23 02:00:40;;;;;;;14.43;8.68;;;;;;;-0.62;73.21;96819.70;1722318;83;21531;-79
2021/03/23 02:03:08;;;;;;;14.47;9.68;;;;;;;-0.60;73.21;96828.11;1700592;84;21139;-79
2021/03/23 02:05:35;;;;;;;13.60;9.50;;;;;;;-0.66;73.29;96825.53;1723740;81;21118;-79
2021/03/23 02:08:05;;;;;;;19.48;11.08;;;;;;;-0.72;73.52;96825.81;1735870;82;21147;-79
2021/03/23 02:10:34;;;;;;;16.07;9.40;;;;;;;-0.77;73.63;96831.33;1700602;84;21170;-79
2021/03/23 02:13:06;;;;;;;16.35;9.38;;;;;;;-0.79;73.79;96820.33;1724799;81;21498;-79
2021/03/23 02:15:34;;;;;;;19.92;11.22;;;;;;;-0.78;73.81;96831.84;1727025;82;21112;-79
2021/03/23 02:18:23;;;;;;;22.58;10.25;;;;;;;-0.75;73.71;96822.31;1721276;82;21120;-79
2021/03/23 02:21:14;;;;;;;17.00;8.83;;;;;;;-0.77;73.66;96826.92;1702273;83;21111;-79
2021/03/23 02:23:47;;;;;;;;;;;;;;;-0.74;73.68;96828.32;1710264;82;21188;-79
2021/03/23 02:26:22;;;;;;;20.92;13.10;;;;;;;-0.74;73.68;96831.72;1701581;84;20216;-79
2021/03/23 02:29:15;;;;;;;21.40;10.95;;;;;;;-0.74;73.74;96832.23;1727809;83;21115;-79
2021/03/23 02:31:48;;;;;;;15.95;9.95;;;;;;;-0.74;73.78;96833.02;1697681;83;21193;-79
2021/03/23 02:34:18;;;;;;;20.77;11.57;;;;;;;-0.69;73.80;96836.34;1727355;83;21133;-78
2021/03/23 02:36:48;;;;;;;10.85;6.72;;;;;;;-0.67;73.69;96833.84;1688475;84;21104;-78
2021/03/23 02:39:26;;;;;;;14.15;7.37;;;;;;;-0.64;73.51;96825.63;1691539;84;21532;-78
2021/03/23 02:41:54;;;;;;;12.00;6.92;;;;;;;-0.52;72.69;96834.92;1724532;81;21500;-78
2021/03/23 02:44:22;;;;;;;13.85;7.60;;;;;;;-0.37;72.24;96832.09;1729000;83;21105;-78
2021/03/23 02:46:49;;;;;;;13.93;6.97;;;;;;;-0.33;71.95;96830.67;1727196;83;21142;-79
2021/03/23 02:49:17;;;;;;;12.37;6.65;;;;;;;-0.32;71.80;96833.08;1717862;83;21105;-79
2021/03/23 02:51:44;;;;;;;12.20;7.78;;;;;;;-0.23;71.23;96831.06;1721483;83;21542;-78
2021/03/23 02:54:11;;;;;;;19.50;9.95;;;;;;;-0.22;71.13;96830.05;1666730;84;21150;-78
2021/03/23 02:56:38;;;;;;;13.15;8.05;;;;;;;-0.22;71.35;96833.16;1733096;82;21096;-78
2021/03/23 02:59:04;;;;;;;15.90;8.20;;;;;;;-0.23;70.92;96841.98;1737389;82;21123;-78
2021/03/23 03:01:31;;;;;;;16.80;8.45;;;;;;;-0.23;70.89;96836.27;1735356;82;21181;-78
2021/03/23 03:03:58;;;;;;;13.62;7.58;;;;;;;-0.25;70.99;96833.08;1720230;82;21538;-78
2021/03/23 03:06:25;;;;;;;18.05;7.53;;;;;;;-0.23;70.77;96832.36;1687855;84;21160;-78
2021/03/23 03:08:52;;;;;;;14.43;8.68;;;;;;;-0.23;70.58;96833.67;1723955;81;21124;-78
2021/03/23 03:11:19;;;;;;;19.70;8.48;;;;;;;-0.22;70.55;96830.56;1693355;84;21136;-78
2021/03/23 03:13:46;;;;;;;17.37;9.53;;;;;;;-0.20;70.61;96839.77;1730566;81;21145;-78
2021/03/23 03:16:13;;;;;;;19.45;8.45;;;;;;;-0.27;70.86;96831.69;1687007;84;21160;-78
2021/03/23 03:18:40;;;;;;;17.57;9.98;;;;;;;-0.37;70.57;96834.70;1706779;83;21383;-78
2021/03/23 03:21:08;;;;;;;19.52;10.32;;;;;;;-0.39;71.11;96828.90;1702364;83;21183;-78
2021/03/23 03:23:35;;;;;;;23.35;13.48;;;;;;;-0.46;71.22;96828.89;1698997;83;21131;-78
2021/03/23 03:26:05;;;;;;;18.87;11.25;;;;;;;-0.54;71.35;96832.23;1728074;83;21155;-78
2021/03/23 03:28:34;;;;;;;22.22;12.63;;;;;;;-0.48;71.13;96822.30;1710845;83;21131;-78
2021/03/23 03:31:04;;;;;;;19.82;11.15;;;;;;;-0.51;71.26;96817.50;1687080;84;21543;-78
2021/03/23 03:33:31;;;;;;;17.87;11.67;;;;;;;-0.57;71.70;96806.57;1699993;83;21523;-78
2021/03/23 03:35:59;;;;;;;15.30;9.55;;;;;;;-0.62;71.69;96815.80;1750614;80;21147;-78
2021/03/23 03:38:27;;;;;;;23.85;13.50;;;;;;;-0.66;71.91;96825.02;1753778;81;21178;-78
2021/03/23 03:40:58;;;;;;;17.82;9.90;;;;;;;-0.70;72.15;96814.72;1759282;81;21289;-78
2021/03/23 03:43:30;;;;;;;27.02;14.28;;;;;;;-0.77;72.44;96821.72;1750819;81;21281;-78
2021/03/23 03:45:57;;;;;;;21.23;11.78;;;;;;;-0.78;72.22;96816.22;1725511;82;21556;-78
2021/03/23 03:48:26;;;;;;;12.78;8.08;;;;;;;-0.79;72.36;96813.82;1729078;83;21493;-78
2021/03/23 03:50:55;;;;;;;16.23;9.08;;;;;;;-0.82;72.51;96810.33;1724232;83;21231;-78
2021/03/23 03:53:23;;;;;;;18.20;10.00;;;;;;;-0.82;72.65;96820.23;1729732;83;21155;-78
2021/03/23 03:55:53;;;;;;;24.75;14.23;;;;;;;-0.84;72.64;96816.23;1725516;82;21147;-78
2021/03/23 03:58:21;;;;;;;16.67;9.95;;;;;;;-0.83;72.64;96817.84;1723690;82;21101;-78
2021/03/23 04:00:49;;;;;;;23.20;13.62;;;;;;;-0.84;72.63;96811.83;1732248;83;21141;-78
2021/03/23 04:03:20;;;;;;;17.25;10.55;;;;;;;-0.84;72.52;96819.64;1729903;83;21514;-78
2021/03/23 04:05:50;;;;;;;19.77;10.58;;;;;;;-0.86;72.57;96816.41;1721903;83;21482;-78
2021/03/23 04:08:21;;;;;;;11.63;7.97;;;;;;;-0.90;72.79;96800.91;1726237;82;21472;-78
2021/03/23 04:10:51;;;;;;;17.62;9.18;;;;;;;-0.94;72.81;96814.83;1753932;81;21156;-78
2021/03/23 04:13:20;;;;;;;15.83;9.73;;;;;;;-0.92;72.66;96806.81;1751746;81;21293;-78
2021/03/23 04:15:50;;;;;;;25.02;15.40;;;;;;;-0.84;72.68;96814.43;1757070;81;21649;-78
2021/03/23 04:18:22;;;;;;;23.65;11.60;;;;;;;-0.86;72.53;96824.22;1740064;81;21111;-78
2021/03/23 04:20:51;;;;;;;20.97;11.70;;;;;;;-0.92;72.87;96819.83;1704961;84;21146;-78
2021/03/23 04:23:33;;;;;;;17.03;9.07;;;;;;;-0.97;73.12;96827.44;1768104;81;21111;-78
2021/03/23 04:26:01;;;;;;;24.00;10.38;;;;;;;-1.01;73.30;96829.62;1762503;81;21256;-79
2021/03/23 04:28:28;;;;;;;12.35;7.78;;;;;;;-1.03;73.43;96823.02;1734606;82;21131;-79
2021/03/23 04:30:57;;;;;;;19.05;11.40;;;;;;;-1.01;73.39;96823.62;1724937;82;21482;-79
2021/03/23 04:33:28;;;;;;;15.32;8.03;;;;;;;-1.02;73.45;96829.82;1703174;84;21131;-79
2021/03/23 04:36:06;;;;;;;16.05;10.08;;;;;;;-1.00;73.42;96831.72;1721858;81;21103;-79
2021/03/23 04:38:39;;;;;;;16.52;8.10;;;;;;;-0.99;73.15;96835.92;1725973;83;21475;-80
2021/03/23 04:41:11;;;;;;;19.48;12.00;;;;;;;-0.87;72.80;96841.34;1719699;83;21518;-80
2021/03/23 04:43:45;;;;;;;24.10;12.98;;;;;;;-0.74;72.51;96846.04;1710419;84;21192;-80
2021/03/23 04:46:17;;;;;;;21.77;12.30;;;;;;;-0.73;72.37;96842.94;1726889;81;21141;-80
2021/03/23 04:48:45;;;;;;;24.00;11.08;;;;;;;-0.72;72.30;96837.52;1724403;82;21088;-79
2021/03/23 04:51:13;;;;;;;23.15;13.78;;;;;;;-0.71;72.02;96839.63;1720056;82;21164;-80
2021/03/23 04:53:42;;;;;;;15.88;9.85;;;;;;;-0.66;71.99;96841.95;1767207;81;21447;-80
2021/03/23 04:56:21;;;;;;;18.80;11.83;;;;;;;-0.65;71.56;96831.83;1765494;81;21139;-80
2021/03/23 04:58:49;;;;;;;23.62;12.93;;;;;;;-0.50;71.51;96841.23;1765640;81;21468;-79
2021/03/23 05:01:16;;;;;;;14.55;8.10;;;;;;;-0.49;71.42;96841.02;1731648;82;21179;-80
2021/03/23 05:03:43;;;;;;;19.87;11.48;;;;;;;-0.46;71.26;96843.72;1731791;82;21517;-79
2021/03/23 05:06:12;;;;;;;22.42;12.75;;;;;;;-0.41;71.13;96843.93;1710494;84;21132;-79
2021/03/23 05:08:43;;;;;;;22.73;12.50;;;;;;;-0.39;71.07;96849.23;1710898;84;21587;-79
2021/03/23 05:11:18;;;;;;;20.40;11.63;;;;;;;-0.41;71.06;96842.12;1730646;83;21490;-79
2021/03/23 05:13:46;;;;;;;19.67;11.20;;;;;;;-0.40;70.98;96848.14;1701105;84;21544;-79
2021/03/23 05:16:13;;;;;;;15.72;8.30;;;;;;;-0.37;70.90;96836.00;1743424;81;21489;-80
2021/03/23 05:18:41;;;;;;;20.45;11.10;;;;;;;-0.33;70.89;96840.59;1735558;82;21522;-79
2021/03/23 05:21:10;;;;;;;13.40;7.55;;;;;;;-0.28;70.71;96833.96;1732975;82;21158;-79
2021/03/23 05:23:38;;;;;;;10.78;6.28;;;;;;;-0.27;70.58;96844.20;1733053;83;21131;-79
2021/03/23 05:27:10;;;;;;;20.70;10.72;;;;;;;-0.25;70.35;96844.80;1723785;83;21124;-79
2021/03/23 05:29:44;;;;;;;19.85;10.23;;;;;;;-0.13;70.12;96847.58;1733242;82;21133;-79
2021/03/23 05:32:11;;;;;;;14.40;6.87;;;;;;;-0.13;70.12;96847.58;1726918;82;21117;-79
2021/03/23 05:34:38;;;;;;;14.40;7.70;;;;;;;-0.11;69.39;96846.37;1757531;81;21166;-79
2021/03/23 05:37:06;;;;;;;16.75;9.03;;;;;;;0.04;69.41;96840.91;1754763;80;21273;-79
2021/03/23 05:39:33;;;;;;;14.58;8.13;;;;;;;0.07;69.07;96843.61;1762951;81;21149;-79
2021/03/23 05:42:27;;;;;;;18.07;10.58;;;;;;;0.13;68.81;96848.78;1727172;81;21257;-79
2021/03/23 05:45:09;;;;;;;15.50;8.05;;;;;;;0.11;69.19;96847.39;1724263;81;21143;-79
2021/03/23 05:47:40;;;;;;;18.77;11.15;;;;;;;0.07;68.99;96844.91;1704147;84;21078;-79
2021/03/23 05:50:30;;;;;;;17.98;10.08;;;;;;;0.03;68.80;96842.42;1728831;83;21144;-79
2021/03/23 05:53:12;;;;;;;17.42;10.68;;;;;;;0.07;68.79;96851.42;1725949;81;21133;-79
2021/03/23 05:55:47;;;;;;;19.42;9.35;;;;;;;0.12;68.50;96852.39;1748875;81;21327;-79
2021/03/23 05:58:24;;;;;;;20.00;10.63;;;;;;;0.12;68.50;96852.39;1762530;81;21487;-79
2021/03/23 06:01:11;;;;;;;15.32;9.95;;;;;;;0.14;68.90;96850.88;1745724;80;21119;-79
2021/03/23 06:03:56;;;;;;;20.43;12.13;;;;;;;0.19;68.60;96854.99;1721782;83;21110;-79
2021/03/23 06:07:02;;;;;;;19.95;10.95;;;;;;;0.16;68.62;96844.48;1727110;83;21120;-79
2021/03/23 06:09:36;;;;;;;14.50;6.87;;;;;;;0.21;68.74;96842.55;1753970;81;21115;-79
2021/03/23 06:12:37;;;;;;;17.65;8.95;;;;;;;0.31;68.29;96854.66;1752382;81;21288;-79
2021/03/23 06:15:25;;;;;;;15.93;9.25;;;;;;;0.42;68.02;96863.10;1761317;81;21262;-79
2021/03/23 06:18:29;;;;;;;16.02;8.73;;;;;;;0.48;68.04;96858.38;1743888;81;21152;-79
2021/03/23 06:21:14;;;;;;;18.48;9.05;;;;;;;0.55;67.89;96857.83;1766537;80;21479;-79
2021/03/23 06:26:58;;;;;;;20.27;10.13;;;;;;;0.68;67.56;96870.52;1883702;76;22554;-79
2021/03/23 06:29:52;;;;;;;16.55;9.48;;;;;;;0.68;67.56;96870.52;1811140;77;21127;-79
2021/03/23 06:32:34;;;;;;;15.70;9.35;;;;;;;0.74;67.78;96867.88;1834337;77;21104;-78
2021/03/23 06:35:04;;;;;;;22.82;11.05;;;;;;;0.83;67.31;96874.94;1794512;78;21460;-78
2021/03/23 06:40:27;;;;;;;20.02;10.43;;;;;;;1.03;67.33;96876.14;1879700;75;23438;-78
2021/03/23 06:43:00;;;;;;;22.93;11.75;;;;;;;1.05;67.30;96873.61;1812635;77;21125;-78
2021/03/23 06:45:38;;;;;;;20.12;11.57;;;;;;;1.12;67.11;96877.47;1826074;77;21076;-78
2021/03/23 06:48:28;;;;;;;18.17;9.95;;;;;;;1.17;67.08;96877.14;1828068;77;21208;-79
2021/03/23 06:51:11;;;;;;;;;;;;;;;1.20;66.45;96881.14;1828400;77;21128;-79
2021/03/23 06:53:40;;;;;;;20.35;11.48;;;;;;;1.26;66.66;96878.97;1833109;77;20155;-79
2021/03/23 06:56:24;;;;;;;18.63;10.70;;;;;;;1.33;66.65;96876.33;1828399;77;21478;-79
2021/03/23 06:59:11;;;;;;;17.42;9.88;;;;;;;1.38;66.01;96879.89;1821460;77;21099;-79
2021/03/23 07:01:52;;;;;;;19.00;9.65;;;;;;;1.49;66.13;96874.48;1832610;77;21105;-79
2021/03/23 07:04:40;;;;;;;17.42;9.93;;;;;;;1.65;65.94;96879.16;1811826;77;21095;-79
2021/03/23 07:07:22;;;;;;;19.37;10.82;;;;;;;1.74;65.72;96877.09;1841015;77;21087;-79
2021/03/23 07:09:57;;;;;;;19.30;10.45;;;;;;;1.83;65.70;96875.80;1824565;77;21071;-79
2021/03/23 07:12:46;;;;;;;18.35;10.98;;;;;;;1.94;65.14;96875.06;1838958;77;21615;-79
2021/03/23 07:15:33;;;;;;;19.17;10.65;;;;;;;2.05;65.36;96874.36;1819630;77;21090;-79
2021/03/23 07:18:15;;;;;;;15.65;9.48;;;;;;;2.23;65.07;96882.70;1820536;77;21071;-78
2021/03/23 07:20:50;;;;;;;18.00;10.40;;;;;;;2.34;64.74;96878.56;1828797;77;21076;-79
2021/03/23 07:23:28;;;;;;;17.92;9.53;;;;;;;2.47;64.60;96871.07;1831599;77;21064;-79
2021/03/23 07:25:58;;;;;;;16.05;9.00;;;;;;;2.52;64.05;96872.00;1839617;77;21110;-79
2021/03/23 07:28:36;;;;;;;19.10;9.65;;;;;;;2.60;63.95;96873.02;1823831;77;21455;-79
2021/03/23 07:31:22;;;;;;;18.67;10.18;;;;;;;2.67;63.70;96876.36;1824995;77;21127;-79
2021/03/23 07:34:19;;;;;;;16.15;8.98;;;;;;;2.71;63.95;96879.33;1810119;77;21460;-79
2021/03/23 07:36:54;;;;;;;20.00;9.73;;;;;;;2.82;63.96;96873.86;1827263;77;21095;-80
2021/03/23 07:39:45;;;;;;;18.48;9.70;;;;;;;2.90;63.81;96871.70;1835381;77;21148;-80
2021/03/23 07:42:40;;;;;;;16.12;8.38;;;;;;;2.96;63.24;96870.84;1819498;77;21263;-80
2021/03/23 07:45:28;;;;;;;19.57;10.68;;;;;;;3.01;63.08;96865.43;1809800;77;21496;-79
2021/03/23 07:48:10;;;;;;;16.25;8.95;;;;;;;3.05;63.18;96862.64;1839244;77;21106;-79
2021/03/23 07:50:42;;;;;;;15.38;7.47;;;;;;;3.07;63.24;96869.76;1837676;77;21088;-79
2021/03/23 07:53:36;;;;;;;13.40;7.15;;;;;;;3.05;62.06;96853.47;1837431;77;21082;-79
2021/03/23 07:56:27;;;;;;;13.68;6.60;;;;;;;2.91;60.79;96858.91;1830659;77;21117;-80
2021/03/23 07:59:01;;;;;;;11.85;6.33;;;;;;;2.82;61.20;96860.25;1819623;77;21091;-79
2021/03/23 08:01:57;;;;;;;13.40;6.55;;;;;;;2.74;60.64;96864.48;1814519;77;21639;-79
2021/03/23 08:04:56;;;;;;;11.53;5.90;;;;;;;2.73;60.51;96858.16;1814675;77;21064;-79
2021/03/23 08:07:32;;;;;;;13.03;6.00;;;;;;;2.76;60.78;96853.27;1799379;77;21119;-79
2021/03/23 08:10:11;;;;;;;14.13;6.47;;;;;;;2.76;60.31;96849.86;1816984;77;21116;-79
2021/03/23 08:12:47;;;;;;;14.05;7.42;;;;;;;2.83;61.68;96850.07;1827764;77;21126;-80
2021/03/23 08:15:40;;;;;;;15.98;7.47;;;;;;;3.02;60.99;96846.07;1824742;77;21139;-80
2021/03/23 08:18:42;;;;;;;12.40;6.85;;;;;;;3.23;61.38;96846.84;1830106;77;21625;-77
2021/03/23 08:21:36;;;;;;;13.18;7.03;;;;;;;3.43;60.81;96843.41;1824870;77;21273;-79
2021/03/23 08:24:39;;;;;;;13.60;7.58;;;;;;;3.63;61.29;96848.82;1836113;77;21234;-79
2021/03/23 08:27:36;;;;;;;12.07;6.65;;;;;;;3.82;60.07;96843.77;1826483;77;21161;-79
2021/03/23 08:30:39;;;;;;;16.42;7.30;;;;;;;3.81;59.38;96844.28;1836058;77;21132;-80
2021/03/23 08:33:17;;;;;;;14.43;7.90;;;;;;;4.11;59.77;96841.50;1836912;77;21251;-80
2021/03/23 08:35:56;;;;;;;11.90;5.92;;;;;;;4.64;59.69;96837.00;1822810;77;21080;-80
2021/03/23 08:38:44;;;;;;;8.93;4.97;;;;;;;5.05;56.67;96829.32;1819336;77;21080;-80
2021/03/23 08:41:57;;;;;;;11.85;5.42;;;;;;;5.13;56.25;96831.58;1829226;77;21122;-80
2021/03/23 08:44:35;;;;;;;12.13;6.37;;;;;;;5.08;55.05;96830.19;1832446;77;21482;-79
2021/03/23 08:47:26;;;;;;;13.32;5.87;;;;;;;4.65;55.39;96841.25;1831295;77;21254;-79
2021/03/23 08:49:57;;;;;;;9.58;4.78;;;;;;;4.33;55.64;96839.04;1815207;77;21115;-80
2021/03/23 08:52:34;;;;;;;;;;;;;;;3.98;55.99;96840.95;1801797;77;21511;-79
2021/03/23 08:55:04;;;;;;;9.68;4.30;;;;;;;3.76;56.75;96851.22;1805086;77;20133;-79
2021/03/23 08:58:03;;;;;;;10.78;5.75;;;;;;;3.63;57.19;96845.69;1770785;80;21145;-79
2021/03/23 09:00:42;;;;;;;7.15;3.77;;;;;;;3.46;57.90;96856.56;1771543;80;21092;-80
2021/03/23 09:03:18;;;;;;;15.93;5.53;;;;;;;3.34;58.13;96850.00;1756819;80;21530;-79
2021/03/23 09:06:01;;;;;;;9.50;5.33;;;;;;;3.20;58.90;96862.50;1779860;80;21459;-79
2021/03/23 09:08:43;;;;;;;9.78;4.92;;;;;;;3.06;60.10;96865.03;1762786;80;21119;-80
2021/03/23 09:14:17;;;;;;;12.37;5.20;;;;;;;2.82;61.29;96856.33;1817387;78;23446;-79
2021/03/23 09:17:02;;;;;;;12.90;6.37;;;;;;;2.73;61.60;96875.97;1769935;80;21506;-79
2021/03/23 09:19:44;;;;;;;10.80;6.20;;;;;;;2.66;62.23;96855.62;1757018;80;21109;-79
2021/03/23 09:22:20;;;;;;;8.80;5.42;;;;;;;2.62;62.90;96872.28;1761853;80;21096;-79
2021/03/23 09:24:48;;;;;;;10.93;6.08;;;;;;;2.59;62.79;96869.31;1751831;81;21126;-79
2021/03/23 09:27:34;;;;;;;12.45;5.83;;;;;;;2.60;62.98;96870.91;1751112;81;21164;-79
2021/03/23 09:30:05;;;;;;;7.53;4.72;;;;;;;2.59;63.16;96854.92;1753824;81;21096;-79
2021/03/23 09:32:37;;;;;;;17.32;7.65;;;;;;;2.56;63.28;96872.38;1718736;82;21116;-79
2021/03/23 09:35:11;;;;;;;11.38;6.10;;;;;;;2.54;63.36;96869.19;1746093;81;21096;-79
2021/03/23 09:37:52;;;;;;;10.58;6.03;;;;;;;2.51;63.62;96865.17;1732095;82;21505;-79
2021/03/23 09:40:25;;;;;;;8.55;4.37;;;;;;;2.45;63.77;96855.59;1736794;82;21111;-79
2021/03/23 09:43:07;;;;;;;17.35;8.20;;;;;;;2.41;64.01;96871.45;1742485;81;21154;-79
2021/03/23 09:45:51;;;;;;;12.43;6.92;;;;;;;2.40;64.25;96858.08;1738228;81;21474;-79
2021/03/23 09:49:16;;;;;;;9.33;5.08;;;;;;;2.40;64.29;96865.94;1732586;82;21131;-79
2021/03/23 09:51:58;;;;;;;14.25;8.63;;;;;;;2.34;64.82;96851.89;1747361;81;21163;-79
2021/03/23 09:54:33;;;;;;;20.50;7.87;;;;;;;2.27;65.46;96859.04;1747360;81;21486;-80
2021/03/23 09:57:14;;;;;;;12.90;5.10;;;;;;;2.27;66.00;96851.19;1758185;81;21116;-80
2021/03/23 09:59:47;;;;;;;21.35;11.75;;;;;;;2.29;66.35;96857.00;1751300;81;21624;-79
2021/03/23 10:02:33;;;;;;;27.37;11.35;;;;;;;2.24;66.58;96860.76;1704832;84;21185;-79
2021/03/23 10:05:27;;;;;;;21.45;10.03;;;;;;;2.24;66.81;96859.45;1704721;84;21515;-79
2021/03/23 10:08:17;;;;;;;14.83;7.85;;;;;;;2.25;66.73;96852.41;1717945;82;21139;-79
2021/03/23 10:10:44;;;;;;;12.68;7.17;;;;;;;2.22;66.74;96853.64;1674379;84;21309;-80
2021/03/23 10:13:30;;;;;;;11.88;8.23;;;;;;;2.26;67.42;96858.75;1700078;84;21130;-80
2021/03/23 10:16:00;;;;;;;12.70;7.35;;;;;;;2.30;67.41;96848.13;1697939;84;21520;-80
2021/03/23 10:18:32;;;;;;;14.78;6.50;;;;;;;2.36;67.44;96853.78;1697174;84;21198;-80
2021/03/23 10:21:13;;;;;;;15.78;8.05;;;;;;;2.40;67.73;96846.31;1685545;83;21147;-80
2021/03/23 10:23:50;;;;;;;15.98;8.48;;;;;;;2.44;68.00;96854.52;1680818;85;21139;-80
2021/03/23 10:26:19;;;;;;;10.03;7.00;;;;;;;2.52;67.97;96856.81;1686923;85;21170;-80
2021/03/23 10:28:49;;;;;;;13.45;6.95;;;;;;;2.65;67.94;96853.52;1696347;84;21231;-79
2021/03/23 10:31:34;;;;;;;15.75;7.45;;;;;;;2.82;67.95;96847.16;1697871;83;21155;-80
2021/03/23 10:34:13;;;;;;;15.55;8.43;;;;;;;2.98;67.67;96849.14;1694876;84;21132;-80
2021/03/23 10:37:00;;;;;;;18.67;8.65;;;;;;;3.13;67.68;96849.23;1705862;84;21135;-77
2021/03/23 10:39:46;;;;;;;15.50;8.10;;;;;;;3.09;67.06;96852.00;1709004;84;21151;-79
2021/03/23 10:42:27;;;;;;;16.25;8.83;;;;;;;3.17;66.72;96858.23;1696421;84;21108;-80
2021/03/23 10:45:32;;;;;;;16.35;7.30;;;;;;;3.24;66.90;96859.74;1693666;84;21138;-80
2021/03/23 10:48:10;;;;;;;11.90;6.62;;;;;;;3.35;66.26;96842.42;1708113;84;21130;-79
2021/03/23 10:50:39;;;;;;;13.22;6.80;;;;;;;3.42;66.61;96845.75;1700416;83;21158;-79
2021/03/23 10:53:23;;;;;;;17.62;9.15;;;;;;;3.54;66.39;96862.80;1694975;84;21178;-79
2021/03/23 10:55:53;;;;;;;14.10;8.35;;;;;;;3.64;66.40;96859.08;1700010;84;21124;-79
2021/03/23 10:58:25;;;;;;;17.02;7.25;;;;;;;3.71;66.16;96838.01;1684529;84;21269;-79
2021/03/23 11:01:16;;;;;;;20.55;10.68;;;;;;;3.51;65.96;96833.09;1701498;83;21186;-79
2021/03/23 11:03:47;;;;;;;19.30;9.25;;;;;;;3.33;66.27;96843.16;1703538;84;21770;-80
2021/03/23 11:06:35;;;;;;;13.28;7.65;;;;;;;3.28;67.20;96839.13;1689570;84;21292;-79
2021/03/23 11:09:07;;;;;;;17.48;9.63;;;;;;;3.26;67.36;96839.87;1697331;84;21127;-80
2021/03/23 11:11:36;;;;;;;16.83;9.70;;;;;;;3.23;67.34;96844.22;1707151;84;21579;-79
2021/03/23 11:14:05;;;;;;;14.18;8.65;;;;;;;3.25;67.32;96852.17;1702051;84;21499;-79
2021/03/23 11:16:36;;;;;;;18.55;10.45;;;;;;;3.33;67.86;96847.09;1695298;84;21528;-79
2021/03/23 11:19:27;;;;;;;17.10;8.28;;;;;;;3.45;67.90;96849.73;1753554;81;21483;-79
2021/03/23 11:21:55;;;;;;;16.50;10.70;;;;;;;3.50;67.50;96832.29;1728105;82;21141;-79
2021/03/23 11:24:23;;;;;;;18.10;11.78;;;;;;;3.48;67.44;96835.66;1745587;82;21230;-79
2021/03/23 11:26:50;;;;;;;18.23;10.38;;;;;;;3.56;67.43;96838.47;1749118;82;21122;-79
2021/03/23 11:29:19;;;;;;;19.82;10.00;;;;;;;3.68;67.55;96841.89;1710183;84;21119;-79
2021/03/23 11:31:47;;;;;;;12.98;7.95;;;;;;;3.77;67.31;96830.01;1691352;84;21142;-79
2021/03/23 11:34:15;;;;;;;16.50;8.90;;;;;;;3.79;67.72;96835.82;1690587;84;21112;-79
2021/03/23 11:36:42;;;;;;;16.50;10.80;;;;;;;3.75;67.00;96823.41;1675604;84;21587;-80
2021/03/23 11:39:12;;;;;;;18.10;10.40;;;;;;;3.72;67.63;96829.11;1699188;84;21157;-80
2021/03/23 11:42:26;;;;;;;20.12;9.83;;;;;;;3.75;67.64;96844.38;1702014;84;21167;-80
2021/03/23 11:44:55;;;;;;;26.00;13.53;;;;;;;3.73;67.31;96839.37;1691209;84;21161;-79
2021/03/23 11:47:42;;;;;;;27.95;15.58;;;;;;;3.57;68.10;96842.67;1680982;84;21189;-79
2021/03/23 11:50:14;;;;;;;20.55;12.53;;;;;;;3.50;68.24;96842.77;1709711;82;21146;-79
2021/03/23 11:52:42;;;;;;;22.42;13.25;;;;;;;3.42;68.66;96844.95;1707163;82;21160;-79
2021/03/23 11:55:15;;;;;;;21.82;11.10;;;;;;;3.37;68.76;96844.81;1697366;84;21481;-79
2021/03/23 11:57:43;;;;;;;12.82;7.92;;;;;;;3.33;69.34;96843.67;1695062;84;21191;-79
2021/03/23 12:00:14;;;;;;;22.87;12.60;;;;;;;3.20;69.57;96841.55;1688941;84;21511;-79
2021/03/23 12:02:43;;;;;;;17.20;8.58;;;;;;;3.17;69.98;96846.45;1697845;84;21152;-79
2021/03/23 12:05:13;;;;;;;26.02;13.43;;;;;;;3.14;70.21;96841.15;1681248;84;21147;-79
2021/03/23 12:08:22;;;;;;;21.50;11.50;;;;;;;3.17;70.10;96835.97;1698081;84;21205;-79
2021/03/23 12:11:10;;;;;;;17.98;9.80;;;;;;;3.30;70.76;96839.69;1704186;81;21180;-80
2021/03/23 12:14:06;;;;;;;21.97;12.23;;;;;;;3.43;70.00;96831.62;1709472;83;21123;-80
2021/03/23 12:17:09;;;;;;;21.17;12.10;;;;;;;3.44;69.91;96840.28;1714302;83;21227;-80